Portada
METAR-TAF:

METAR-TAF

Aeroports :

Ottawa, Kansas, Estats Units d'Amèrica

latitud: 38-32-20N, longitud: 095-15-10W, altitud: 295 m

Observació

L'informe es va fer fa 26 minuts, a les 15:35 UTC
Vent 12 kt del Nord-Est
Temperatura 28°C
Humitat 74%
Pressió 1014 hPa
Visibilitat: 16.1 km
Cel ennuvolat a una alçada de 3100 ft
Cel ennuvolat a una alçada de 3600 ft
Cel cobert a una alçada de 4200 ft

METAR: KOWI 151535Z AUTO 04012KT 10SM BKN031 BKN036 OVC042 28/23 A2995 RMK AO2 PWINO

Hora: 11:01 (16:01 UTC)


TAF: manca

Observacions i pronòstics meteorològics de més de 4000 aeroports (METAR i TAF).

Les estacions disponibles són els punts grocs i vermells al mapa.

Posi el ratolí al punt desitjat per veure el nom de l'estació.

Feu clic per veure les observacions i els pronòstics meteorològics.

Per canviar el mapa: feu clic els botons verds amb una creu de color negre per apropar; al botó verd amb un guió per allunyar la imatge; o en les fletxes verdes per a mapes adjacents.


METAR-TAF: